Latest Weather Observations for Evans Head

IDN60801

Issued at 10:03 pm EDT Tuesday 24 January 2017 (issued every 30 minutes, with the page automatically refreshed every 10 minutes)

About weather observations | Map of weather stations | Latest weather observations for NSW | Other Formats
Station Details ID: 058212 Name: EVANS HEAD RAAF BOMBING RANGE AWS Lat: -29.18 Lon: 153.40 Height: 62.5 m
Data from the previous 72 hours. | See also: Recent months at Evans Head
Date/Time
EDT
Temp
°C
App
Temp
°C
Dew
Point
°C
Rel
Hum
%
Delta-T
°C
Wind Press
QNH
hPa
Press
MSL
hPa
Rain since
9am
mm
Dir  Spd
km/h
Gust
km/h
Spd
kts
Gust
kts
24/10:00pm 24.0 24.3 20.5 81 2.3 N 19 30 10 16 1012.5 1012.2 -
24/09:30pm 24.2 24.4 20.1 78 2.7 N 19 28 10 15 1012.3 1012.0 0.0
24/09:00pm 24.5 24.5 20.2 77 2.8 N 20 37 11 20 1011.9 1011.6 0.0
24/08:30pm 24.5 24.6 20.4 78 2.7 N 20 30 11 16 1011.7 1011.4 0.0
24/08:00pm 24.8 24.9 20.3 76 2.9 N 20 30 11 16 1011.5 1011.2 0.0
24/07:30pm 25.4 25.3 20.0 72 3.5 NNE 20 30 11 16 1011.1 1010.8 0.0
24/07:00pm 26.6 26.4 19.7 66 4.5 N 20 28 11 15 1010.9 1010.6 0.0
24/06:30pm 27.8 27.1 19.6 61 5.3 NNE 22 35 12 19 1010.5 1010.2 0.0
24/06:00pm 28.9 28.9 19.8 58 6.0 NNE 19 30 10 16 1010.5 1010.2 0.0
24/05:30pm 30.8 30.9 20.4 54 6.9 N 20 32 11 17 1010.5 1010.2 0.0
24/05:00pm 31.5 31.3 19.8 49 7.7 N 20 32 11 17 1010.5 1010.2 0.0
24/04:30pm 31.7 31.8 20.3 50 7.6 NNE 20 32 11 17 1010.7 1010.4 0.0
24/04:00pm 31.8 31.4 19.4 47 8.2 NNE 20 32 11 17 1011.1 1010.8 0.0
24/03:30pm 33.9 34.2 19.6 43 9.5 N 17 26 9 14 1011.3 1011.0 0.0
24/03:00pm 33.6 33.5 20.0 44 9.1 NNE 20 32 11 17 1011.6 1011.3 0.0
24/02:30pm 33.9 32.9 18.0 39 10.3 NNE 20 28 11 15 1012.0 1011.7 0.0
24/02:00pm 34.1 33.6 18.6 40 10.1 NNE 19 28 10 15 1012.4 1012.1 0.0
24/01:30pm 34.2 34.6 19.1 41 9.9 NNE 15 22 8 12 1012.8 1012.5 0.0
24/01:00pm 33.1 33.3 18.5 42 9.5 NNE 15 24 8 13 1013.3 1012.9 0.0
24/12:30pm 32.8 32.3 17.0 38 10.1 N 15 24 8 13 1013.5 1013.1 0.0
24/12:00pm 32.5 31.5 17.9 41 9.4 NNW 20 30 11 16 1013.9 1013.5 0.0
24/11:30am 31.9 31.1 18.1 43 8.9 NNW 19 30 10 16 1014.3 1013.9 0.0
24/11:00am 30.3 29.4 18.1 48 7.8 NNW 20 32 11 17 1014.8 1014.5 0.0
24/10:30am 29.2 28.1 17.7 50 7.3 NNW 20 33 11 18 1015.2 1014.9 0.0
24/10:00am 28.1 27.8 18.2 55 6.3 N 17 28 9 15 1015.7 1015.4 0.0
24/09:30am 26.9 26.4 17.7 57 5.8 NNW 17 26 9 14 1015.8 1015.5 0.0
24/09:00am 25.7 26.2 18.4 64 4.6 N 13 20 7 11 1015.9 1015.6 0.0
24/08:30am 24.6 25.5 18.3 68 4.0 NNW 11 17 6 9 1016.0 1015.7 0.0
24/08:00am 23.1 24.8 18.6 76 2.8 NNW 7 9 4 5 1015.8 1015.5 0.0
24/07:30am 21.1 22.3 18.3 84 1.7 N 9 13 5 7 1015.7 1015.4 0.0
24/07:00am 19.2 20.2 18.7 97 0.3 NNW 11 17 6 9 1015.3 1015.0 0.0
24/06:30am 18.0 18.2 17.7 98 0.2 NNW 13 17 7 9 1015.3 1015.0 0.0
24/06:00am 17.5 17.9 17.2 98 0.2 NNW 11 15 6 8 1015.0 1014.7 0.0
24/05:30am 17.7 18.5 17.4 98 0.2 NNW 9 11 5 6 1014.8 1014.5 0.0
24/05:00am 17.8 18.7 17.5 98 0.2 NNW 9 13 5 7 1014.7 1014.4 0.0
24/04:30am 17.9 18.5 17.6 98 0.2 NNW 11 13 6 7 1014.6 1014.2 0.0
24/04:00am 18.1 19.0 17.6 97 0.3 N 9 11 5 6 1014.7 1014.4 0.0
24/03:30am 18.4 19.5 17.9 97 0.3 NNW 9 13 5 7 1014.7 1014.4 0.0
24/03:00am 18.7 19.5 18.2 97 0.3 NNW 11 15 6 8 1014.6 1014.2 0.0
24/02:30am 18.8 19.3 18.3 97 0.3 NNW 13 19 7 10 1014.7 1014.4 0.0
24/02:00am 19.2 19.5 17.9 92 0.8 NNW 13 22 7 12 1015.0 1014.7 0.0
24/01:30am 20.2 20.2 18.0 87 1.4 N 15 22 8 12 1015.2 1014.9 0.0
24/01:00am 20.3 20.1 17.7 85 1.6 N 15 20 8 11 1015.5 1015.2 0.0
24/12:30am 20.8 19.8 17.6 82 2.0 N 19 28 10 15 1015.5 1015.2 0.0
24/12:00am 20.8 19.6 17.0 79 2.3 N 19 24 10 13 1015.9 1015.6 0.0
 
Date/Time
EDT
Temp
°C
App
Temp
°C
Dew
Point
°C
Rel
Hum
%
Delta-T
°C
Wind Press
QNH
hPa
Press
MSL
hPa
Rain since
9am
mm
Dir  Spd
km/h
Gust
km/h
Spd
kts
Gust
kts
23/11:30pm 20.9 20.3 16.7 77 2.6 N 15 22 8 12 1016.1 1015.8 0.0
23/11:00pm 21.2 19.7 16.4 74 2.9 N 19 26 10 14 1016.0 1015.7 0.0
23/10:30pm 21.5 20.1 16.5 73 3.0 N 19 30 10 16 1015.7 1015.4 0.0
23/10:00pm 21.7 20.2 16.4 72 3.2 N 19 28 10 15 1016.0 1015.7 0.0
23/09:30pm 22.1 20.9 17.0 73 3.1 N 19 28 10 15 1015.8 1015.5 0.0
23/09:00pm 22.6 21.2 17.1 71 3.4 N 20 32 11 17 1015.7 1015.4 0.0
23/08:30pm 23.0 21.5 16.8 68 3.8 N 20 32 11 17 1015.4 1015.1 0.0
23/08:00pm 23.1 21.5 16.4 66 4.1 N 20 32 11 17 1015.3 1015.0 0.0
23/07:30pm 23.6 21.8 15.9 62 4.7 NNE 20 33 11 18 1015.0 1014.7 0.0
23/07:00pm 24.6 22.5 16.1 59 5.2 NNE 22 37 12 20 1014.8 1014.5 0.0
23/06:30pm 25.4 23.7 16.3 57 5.6 NNE 20 35 11 19 1014.5 1014.1 0.0
23/06:00pm 25.9 24.2 16.2 55 6.0 NNE 20 32 11 17 1014.3 1013.9 0.0
23/05:30pm 26.3 24.6 16.3 54 6.2 NNE 20 33 11 18 1014.2 1013.8 0.0
23/05:00pm 26.6 25.4 17.4 57 5.8 NNE 20 35 11 19 1014.3 1013.9 0.0
23/04:30pm 26.7 25.2 17.8 58 5.6 ENE 22 33 12 18 1014.5 1014.1 0.0
23/04:00pm 26.9 25.9 17.9 57 5.7 ENE 20 32 11 17 1014.8 1014.5 0.0
23/03:30pm 27.2 26.2 17.9 56 5.9 E 20 32 11 17 1015.1 1014.8 0.0
23/03:00pm 26.8 25.3 17.6 57 5.8 E 22 30 12 16 1015.3 1015.0 0.0
23/02:30pm 27.1 25.2 17.6 56 6.0 E 24 33 13 18 1015.5 1015.2 0.0
23/02:00pm 26.8 23.9 16.1 52 6.6 E 26 35 14 19 1015.6 1015.3 0.0
23/01:30pm 26.5 24.2 15.8 51 6.6 ENE 22 32 12 17 1016.1 1015.8 0.0
23/01:00pm 27.5 25.9 16.1 49 7.0 E 19 26 10 14 1016.3 1016.0 0.0
23/12:30pm 27.1 25.2 15.8 50 6.9 E 20 28 11 15 1016.8 1016.5 0.0
23/12:00pm 27.3 25.3 15.0 47 7.5 E 19 26 10 14 1017.1 1016.8 0.0
23/11:30am 27.9 26.3 15.9 48 7.4 E 19 28 10 15 1017.2 1016.9 0.0
23/11:00am 26.7 24.6 14.8 48 7.2 ESE 19 24 10 13 1017.4 1017.1 0.0
23/10:30am 26.5 25.6 14.9 49 7.0 E 13 20 7 11 1017.7 1017.4 0.0
23/10:00am 26.7 26.5 15.7 51 6.7 ESE 11 17 6 9 1017.6 1017.3 0.0
23/09:30am 25.8 25.2 14.6 50 6.7 ESE 11 17 6 9 1017.5 1017.2 0.0
23/09:00am 25.6 26.0 16.2 56 5.8 E 9 13 5 7 1017.6 1017.3 0.0
23/08:30am 25.1 25.6 16.5 59 5.3 E 9 13 5 7 1017.6 1017.3 0.0
23/08:00am 24.6 26.0 17.3 64 4.5 SE 6 7 3 4 1017.6 1017.3 0.0
23/07:30am 22.6 25.0 16.9 70 3.5 CALM 0 6 0 3 1017.3 1017.0 0.0
23/07:00am 20.6 22.5 17.6 83 1.8 NNW 4 6 2 3 1016.8 1016.5 0.0
23/06:30am 19.8 21.2 17.9 89 1.2 NNW 7 7 4 4 1016.5 1016.2 0.0
23/06:00am 19.5 20.8 17.6 89 1.2 NNW 7 9 4 5 1016.3 1016.0 0.0
23/05:30am 20.1 21.4 17.1 83 1.8 N 6 7 3 4 1015.9 1015.6 0.0
23/05:00am 20.8 22.0 17.4 81 2.1 N 7 9 4 5 1015.8 1015.5 0.0
23/04:30am 21.8 24.2 17.0 74 2.9 CALM 0 6 0 3 1015.6 1015.3 0.0
23/04:00am 21.8 24.1 17.6 77 2.6 NE 2 6 1 3 1015.6 1015.3 0.0
23/03:30am 21.3 23.9 18.5 84 1.8 W 2 7 1 4 1015.6 1015.3 0.0
23/03:00am 21.0 22.7 18.4 85 1.6 NW 7 9 4 5 1015.7 1015.4 0.0
23/02:30am 21.4 22.5 18.0 81 2.1 NNE 9 13 5 7 1015.8 1015.5 0.0
23/02:00am 21.8 23.2 18.6 82 2.0 NE 9 13 5 7 1016.1 1015.8 0.0
23/01:30am 21.8 23.0 18.2 80 2.3 ENE 9 13 5 7 1016.2 1015.9 0.0
23/01:00am 21.8 23.5 18.6 82 2.0 ENE 7 9 4 5 1016.4 1016.1 0.0
23/12:30am 22.0 23.4 18.6 81 2.1 E 9 11 5 6 1016.8 1016.5 0.0
23/12:00am 22.1 23.1 17.7 76 2.7 ESE 9 13 5 7 1017.2 1016.9 0.0
 
Date/Time
EDT
Temp
°C
App
Temp
°C
Dew
Point
°C
Rel
Hum
%
Delta-T
°C
Wind Press
QNH
hPa
Press
MSL
hPa
Rain since
9am
mm
Dir  Spd
km/h
Gust
km/h
Spd
kts
Gust
kts
22/11:30pm 22.2 23.1 18.4 79 2.4 E 11 15 6 8 1017.4 1017.1 0.0
22/11:00pm 22.4 23.5 18.0 76 2.7 E 9 15 5 8 1017.4 1017.1 0.0
22/10:30pm 22.5 23.1 17.8 75 2.9 ENE 11 19 6 10 1017.4 1017.1 0.0
22/10:00pm 22.6 22.9 17.9 75 2.9 ESE 13 17 7 9 1017.7 1017.4 0.0
22/09:30pm 22.6 23.1 18.4 77 2.6 ESE 13 17 7 9 1017.6 1017.3 0.0
22/09:00pm 22.6 22.3 18.2 76 2.8 ESE 17 22 9 12 1017.2 1016.9 0.0
22/08:30pm 22.5 22.2 18.3 77 2.6 ESE 17 20 9 11 1017.0 1016.7 0.0
22/08:00pm 22.3 22.8 18.3 78 2.5 ESE 13 19 7 10 1016.8 1016.5 0.0
22/07:30pm 22.6 22.6 17.3 72 3.3 ESE 13 19 7 10 1016.4 1016.1 0.0
22/07:00pm 23.3 22.5 17.1 68 3.8 ESE 17 20 9 11 1016.0 1015.7 0.0
22/06:30pm 24.0 23.7 17.3 66 4.2 ESE 15 19 8 10 1015.8 1015.5 0.0
22/06:00pm 24.8 24.5 17.3 63 4.7 ESE 15 20 8 11 1015.5 1015.2 0.0
22/05:30pm 25.3 24.9 17.2 61 5.0 ESE 15 22 8 12 1015.6 1015.3 0.0
22/05:00pm 25.5 24.7 17.2 60 5.2 ESE 17 24 9 13 1015.8 1015.5 0.0
22/04:30pm 26.2 25.6 17.6 59 5.4 ESE 17 22 9 12 1015.9 1015.6 0.0
22/04:00pm 25.7 24.5 17.1 59 5.4 ESE 19 24 10 13 1016.0 1015.7 0.0
22/03:30pm 26.8 26.2 17.6 57 5.8 ESE 17 24 9 13 1016.1 1015.8 0.0
22/03:00pm 27.4 27.0 18.1 57 5.9 ESE 17 24 9 13 1016.3 1016.0 0.0
22/02:30pm 27.1 26.6 18.7 60 5.4 SE 19 28 10 15 1016.5 1016.2 0.0
22/02:00pm 26.6 25.7 16.8 55 6.1 SE 17 26 9 14 1016.7 1016.4 0.0
22/01:30pm 27.1 26.5 18.4 59 5.6 ESE 19 24 10 13 1016.9 1016.6 0.0
22/01:00pm 26.7 25.9 18.0 59 5.5 ESE 19 28 10 15 1017.2 1016.9 0.0
22/12:30pm 26.7 26.2 17.8 58 5.6 SE 17 24 9 13 1017.3 1017.0 0.0
22/12:00pm 25.4 24.9 17.8 62 4.8 ESE 17 24 9 13 1017.6 1017.3 0.0
22/11:30am 25.2 26.0 19.1 69 3.9 SE 13 20 7 11 1017.7 1017.4 0.0
22/11:00am 24.4 25.2 19.9 76 2.9 SSE 15 24 8 13 1017.7 1017.4 0.0
22/10:30am 25.4 25.3 19.5 70 3.8 SSE 19 24 10 13 1017.6 1017.3 0.0
22/10:00am 25.0 24.9 18.7 68 4.0 S 17 22 9 12 1017.4 1017.1 0.0
22/09:30am 25.2 25.2 18.9 68 4.0 S 17 22 9 12 1017.5 1017.2 0.0
22/09:00am 23.8 24.5 19.7 78 2.6 S 15 20 8 11 1017.2 1016.9 1.4
22/08:30am 23.5 23.1 19.0 76 2.9 SSE 19 24 10 13 1017.0 1016.7 1.4
22/08:00am 23.0 22.8 17.7 72 3.3 SSE 15 20 8 11 1016.7 1016.4 1.4
22/07:30am 23.0 22.7 18.3 75 3.0 SSE 17 22 9 12 1016.3 1016.0 1.4
22/07:00am 22.6 22.6 19.0 80 2.3 SE 17 26 9 14 1015.9 1015.6 1.4
22/06:30am 21.7 21.4 18.3 81 2.1 SSE 17 22 9 12 1015.4 1015.1 1.4
22/06:00am 21.8 21.6 18.6 82 2.0 SSE 17 24 9 13 1014.9 1014.6 1.4
22/05:30am 22.2 22.3 19.2 83 1.9 SSE 17 24 9 13 1014.7 1014.4 1.4
22/05:00am 22.2 22.0 19.4 84 1.8 SSE 19 24 10 13 1014.5 1014.1 1.4
22/04:30am 22.2 22.0 19.4 84 1.8 SSE 19 24 10 13 1014.2 1013.8 1.4
22/04:00am 22.3 22.3 20.2 88 1.4 SSE 20 26 11 14 1014.2 1013.8 1.4
22/03:30am 22.4 22.5 20.3 88 1.4 SSE 20 26 11 14 1014.1 1013.7 1.4
22/03:00am 22.3 22.4 20.4 89 1.2 SSE 20 28 11 15 1014.2 1013.8 1.4
22/02:30am 22.2 22.2 20.1 88 1.4 SSE 20 30 11 16 1014.2 1013.8 1.4
22/02:00am 22.1 22.5 20.7 92 0.9 SSE 19 26 10 14 1014.3 1013.9 1.4
22/01:30am 22.1 23.0 21.6 97 0.3 SSE 19 26 10 14 1014.5 1014.1 1.4
22/01:00am 22.1 23.0 21.6 97 0.3 SSE 19 26 10 14 1014.7 1014.4 1.4
22/12:30am 22.1 23.0 21.6 97 0.3 SSE 19 24 10 13 1015.0 1014.7 1.4
22/12:00am 22.1 23.5 21.8 98 0.2 SSE 17 26 9 14 1015.1 1014.8 1.4
 
Date/Time
EDT
Temp
°C
App
Temp
°C
Dew
Point
°C
Rel
Hum
%
Delta-T
°C
Wind Press
QNH
hPa
Press
MSL
hPa
Rain since
9am
mm
Dir  Spd
km/h
Gust
km/h
Spd
kts
Gust
kts
21/11:30pm 21.7 22.9 21.4 98 0.2 SE 17 30 9 16 1015.1 1014.8 1.4
21/11:00pm 21.1 20.6 20.8 98 0.2 SSE 24 33 13 18 1015.2 1014.9 1.4
21/10:56pm 21.1 19.9 20.8 98 0.2 SSE 28 39 15 21 1015.2 1014.9 1.4
21/10:30pm 21.6 23.2 21.4 99 0.1 SSE 15 20 8 11 1014.9 1014.6 1.4

Other Formats:

Comma delimited format used in spreadsheet applications
http://www.bom.gov.au/fwo/IDN60801/IDN60801.94598.axf

JavaScript Object Notation format (JSON) in row-major order
http://www.bom.gov.au/fwo/IDN60801/IDN60801.94598.json